Luz De Mar — ECIJ — position and weather

sailwx.info

Track history (hours):
 
Tides and Currents Weather Stations Pressure Air Temp Water Temp Dewpoint Dewpoint Depression Visibility Wind Speed Wind Dir Waves Ship Positions

Luz De Mar

Last reported at 2014-Oct-25 18:13 UTC. Time now 2014-Oct-26 01:58 UTC.
Position N 36°08' W 005°26'.

Length 56 m; draft 6.5 m.

Type: SAR. MMSI: 224311000.

Date/timePositionNaut miles runAvg speedWind from/ knotsBaromVisibWave heightAir tempDewpointWater temp
2014-Oct-25 18:13N 36°08' W 005°26'0 0.0
2014-Oct-25 17:19N 36°08' W 005°26'0 0.0
2014-Oct-25 16:25N 36°08' W 005°26'0 0.0
2014-Oct-25 15:06N 36°08' W 005°26'0 0.0
2014-Oct-25 14:18N 36°08' W 005°26'2 0.1
2014-Oct-24 15:33N 36°09' W 005°24'1 1.3
2014-Oct-24 14:33N 36°08' W 005°25'3 3.0
2014-Oct-24 13:33N 36°05' W 005°25'4 0.2
2014-Oct-23 16:08N 36°09' W 005°26'610.8
2014-Oct-23 15:33N 36°07' W 005°18'4 0.4
2014-Oct-23 06:23N 36°10' W 005°16'7 7.1
2014-Oct-23 05:21N 36°09' W 005°25'1 0.1
2014-Oct-22 19:19N 36°08' W 005°26'0 0.0
2014-Oct-22 18:31N 36°08' W 005°26'0 0.0
2014-Oct-22 17:31N 36°08' W 005°26'0 0.0
2014-Oct-22 16:31N 36°08' W 005°26'0 0.0
2014-Oct-22 10:31N 36°08' W 005°26'0 0.0
2014-Oct-22 09:31N 36°08' W 005°26'0 0.0
2014-Oct-22 08:31N 36°08' W 005°26'0 0.0
2014-Oct-22 07:31N 36°08' W 005°26'0 0.0
2014-Oct-22 06:28N 36°08' W 005°26'0 0.0
2014-Oct-22 05:31N 36°08' W 005°26'0 0.0
2014-Oct-22 04:28N 36°08' W 005°26'0 0.0
2014-Oct-22 03:28N 36°08' W 005°26'0 0.0
2014-Oct-22 02:07N 36°08' W 005°26'0 0.0
2014-Oct-22 01:28N 36°08' W 005°26'2 0.2
2014-Oct-21 15:34N 36°10' W 005°25'1 0.6
2014-Oct-21 14:29N 36°09' W 005°25'3 3.1
2014-Oct-21 13:34N 36°06' W 005°24'3 1.9
2014-Oct-21 12:14N 36°09' W 005°25'2 3.6
2014-Oct-21 11:34N 36°10' W 005°23'1 0.2
2014-Oct-21 06:30N 36°10' W 005°24'3 0.1
2014-Oct-19 22:18N 36°08' W 005°26'5 6.8
2014-Oct-19 21:33N 36°03' W 005°25'4 3.8
2014-Oct-19 20:33N 36°01' W 005°29'6 5.5
2014-Oct-19 19:33N 36°05' W 005°24'4 1.0
2014-Oct-19 15:33N 36°09' W 005°25'0 0.3
2014-Oct-19 14:33N 36°09' W 005°25'3 3.0
2014-Oct-19 13:33N 36°06' W 005°24'2 1.8
2014-Oct-19 12:10N 36°08' W 005°25'1 0.2
2014-Oct-19 07:29N 36°08' W 005°26'0 0.0
2014-Oct-19 06:17N 36°08' W 005°26'0 0.0
2014-Oct-19 05:05N 36°08' W 005°26'0 0.0
2014-Oct-18 17:17N 36°08' W 005°26'1 1.7
2014-Oct-18 16:27N 36°07' W 005°25'1 0.4
2014-Oct-18 13:21N 36°08' W 005°26'1 0.8
2014-Oct-18 12:33N 36°08' W 005°25'0 0.2
2014-Oct-18 11:33N 36°08' W 005°25'0 0.0
2014-Oct-17 10:33N 36°08' W 005°25'4 3.9
2014-Oct-17 09:33N 36°05' W 005°23'6 6.4
2014-Oct-17 08:33N 35°59' W 005°20'5 5.4
2014-Oct-17 07:33N 35°54' W 005°19'0 0.1
2014-Oct-17 06:33N 35°54' W 005°19'0 0.0
2014-Oct-17 05:33N 35°54' W 005°19'0 0.0
2014-Oct-17 04:33N 35°54' W 005°19'0 0.0
2014-Oct-17 03:33N 35°54' W 005°19'0 0.0
2014-Oct-17 02:33N 35°54' W 005°19'0 0.0
2014-Oct-17 01:33N 35°54' W 005°19'0 0.0
2014-Oct-17 00:33N 35°54' W 005°19'0 0.0
2014-Oct-16 23:33N 35°54' W 005°19'0 0.0
2014-Oct-16 22:33N 35°54' W 005°19'0 0.0
2014-Oct-16 21:33N 35°54' W 005°19'0 0.0
2014-Oct-16 20:33N 35°54' W 005°19'0 0.0
2014-Oct-16 19:33N 35°54' W 005°19'0 0.0
2014-Oct-16 18:33N 35°54' W 005°19'0 0.0
2014-Oct-16 17:33N 35°54' W 005°19'0 0.0
2014-Oct-16 16:33N 35°54' W 005°19'0 0.0
2014-Oct-16 15:33N 35°54' W 005°19'0 0.0
2014-Oct-16 14:33N 35°54' W 005°19'0 0.0
2014-Oct-16 13:33N 35°54' W 005°19'0 0.0
2014-Oct-16 12:33N 35°54' W 005°19'0 0.0
2014-Oct-16 11:33N 35°54' W 005°19'0 0.0
2014-Oct-16 10:33N 35°54' W 005°19'0 0.0
2014-Oct-16 09:33N 35°54' W 005°19'0 0.0
2014-Oct-16 08:33N 35°54' W 005°19'0 0.0
2014-Oct-16 07:33N 35°54' W 005°19'0 0.0
2014-Oct-16 06:33N 35°54' W 005°19'0 0.0
2014-Oct-16 05:33N 35°54' W 005°19'0 0.0
2014-Oct-16 04:33N 35°54' W 005°19'0 0.0
2014-Oct-16 03:33N 35°54' W 005°19'0 0.0
2014-Oct-16 02:33N 35°54' W 005°19'0 0.0
2014-Oct-16 01:33N 35°54' W 005°19'0 0.0
2014-Oct-16 00:33N 35°54' W 005°19'0 0.0
2014-Oct-15 23:33N 35°54' W 005°19'0 0.0
2014-Oct-15 22:33N 35°54' W 005°19'0 0.0
2014-Oct-15 21:33N 35°54' W 005°19'0 0.0
2014-Oct-15 20:33N 35°54' W 005°19'0 0.0
2014-Oct-15 19:33N 35°54' W 005°19'0 0.0
2014-Oct-15 18:33N 35°54' W 005°19'  
Track history (hours):
 
Tides and Currents Weather Stations Pressure Air Temp Water Temp Dewpoint Dewpoint Depression Visibility Wind Speed Wind Dir Waves Ship Positions

Luz De Mar

Last reported at 2014-Oct-25 18:13 UTC. Time now 2014-Oct-26 01:58 UTC.
Position N 36°08' W 005°26'.

Length 56 m; draft 6.5 m.

Type: SAR. MMSI: 224311000.

Date/timePositionNaut miles runAvg speedWind from/ knotsBaromVisibWave heightAir tempDewpointWater temp
2014-Oct-25 18:13N 36°08' W 005°26'0 0.0
2014-Oct-25 17:19N 36°08' W 005°26'0 0.0
2014-Oct-25 16:25N 36°08' W 005°26'0 0.0
2014-Oct-25 15:06N 36°08' W 005°26'0 0.0
2014-Oct-25 14:18N 36°08' W 005°26'2 0.1
2014-Oct-24 15:33N 36°09' W 005°24'1 1.3
2014-Oct-24 14:33N 36°08' W 005°25'3 3.0
2014-Oct-24 13:33N 36°05' W 005°25'4 0.2
2014-Oct-23 16:08N 36°09' W 005°26'610.8
2014-Oct-23 15:33N 36°07' W 005°18'4 0.4
2014-Oct-23 06:23N 36°10' W 005°16'7 7.1
2014-Oct-23 05:21N 36°09' W 005°25'1 0.1
2014-Oct-22 19:19N 36°08' W 005°26'0 0.0
2014-Oct-22 18:31N 36°08' W 005°26'0 0.0
2014-Oct-22 17:31N 36°08' W 005°26'0 0.0
2014-Oct-22 16:31N 36°08' W 005°26'0 0.0
2014-Oct-22 10:31N 36°08' W 005°26'0 0.0
2014-Oct-22 09:31N 36°08' W 005°26'0 0.0
2014-Oct-22 08:31N 36°08' W 005°26'0 0.0
2014-Oct-22 07:31N 36°08' W 005°26'0 0.0
2014-Oct-22 06:28N 36°08' W 005°26'0 0.0
2014-Oct-22 05:31N 36°08' W 005°26'0 0.0
2014-Oct-22 04:28N 36°08' W 005°26'0 0.0
2014-Oct-22 03:28N 36°08' W 005°26'0 0.0
2014-Oct-22 02:07N 36°08' W 005°26'0 0.0
2014-Oct-22 01:28N 36°08' W 005°26'2 0.2
2014-Oct-21 15:34N 36°10' W 005°25'1 0.6
2014-Oct-21 14:29N 36°09' W 005°25'3 3.1
2014-Oct-21 13:34N 36°06' W 005°24'3 1.9
2014-Oct-21 12:14N 36°09' W 005°25'2 3.6
2014-Oct-21 11:34N 36°10' W 005°23'1 0.2
2014-Oct-21 06:30N 36°10' W 005°24'3 0.1
2014-Oct-19 22:18N 36°08' W 005°26'5 6.8
2014-Oct-19 21:33N 36°03' W 005°25'4 3.8
2014-Oct-19 20:33N 36°01' W 005°29'6 5.5
2014-Oct-19 19:33N 36°05' W 005°24'4 1.0
2014-Oct-19 15:33N 36°09' W 005°25'0 0.3
2014-Oct-19 14:33N 36°09' W 005°25'3 3.0
2014-Oct-19 13:33N 36°06' W 005°24'2 1.8
2014-Oct-19 12:10N 36°08' W 005°25'1 0.2
2014-Oct-19 07:29N 36°08' W 005°26'0 0.0
2014-Oct-19 06:17N 36°08' W 005°26'0 0.0
2014-Oct-19 05:05N 36°08' W 005°26'0 0.0
2014-Oct-18 17:17N 36°08' W 005°26'1 1.7
2014-Oct-18 16:27N 36°07' W 005°25'1 0.4
2014-Oct-18 13:21N 36°08' W 005°26'1 0.8
2014-Oct-18 12:33N 36°08' W 005°25'0 0.2
2014-Oct-18 11:33N 36°08' W 005°25'0 0.0
2014-Oct-17 10:33N 36°08' W 005°25'4 3.9
2014-Oct-17 09:33N 36°05' W 005°23'6 6.4
2014-Oct-17 08:33N 35°59' W 005°20'5 5.4
2014-Oct-17 07:33N 35°54' W 005°19'0 0.1
2014-Oct-17 06:33N 35°54' W 005°19'0 0.0
2014-Oct-17 05:33N 35°54' W 005°19'0 0.0
2014-Oct-17 04:33N 35°54' W 005°19'0 0.0
2014-Oct-17 03:33N 35°54' W 005°19'0 0.0
2014-Oct-17 02:33N 35°54' W 005°19'0 0.0
2014-Oct-17 01:33N 35°54' W 005°19'0 0.0
2014-Oct-17 00:33N 35°54' W 005°19'0 0.0
2014-Oct-16 23:33N 35°54' W 005°19'0 0.0
2014-Oct-16 22:33N 35°54' W 005°19'0 0.0
2014-Oct-16 21:33N 35°54' W 005°19'0 0.0
2014-Oct-16 20:33N 35°54' W 005°19'0 0.0
2014-Oct-16 19:33N 35°54' W 005°19'0 0.0
2014-Oct-16 18:33N 35°54' W 005°19'0 0.0
2014-Oct-16 17:33N 35°54' W 005°19'0 0.0
2014-Oct-16 16:33N 35°54' W 005°19'0 0.0
2014-Oct-16 15:33N 35°54' W 005°19'0 0.0
2014-Oct-16 14:33N 35°54' W 005°19'0 0.0
2014-Oct-16 13:33N 35°54' W 005°19'0 0.0
2014-Oct-16 12:33N 35°54' W 005°19'0 0.0
2014-Oct-16 11:33N 35°54' W 005°19'0 0.0
2014-Oct-16 10:33N 35°54' W 005°19'0 0.0
2014-Oct-16 09:33N 35°54' W 005°19'0 0.0
2014-Oct-16 08:33N 35°54' W 005°19'0 0.0
2014-Oct-16 07:33N 35°54' W 005°19'0 0.0
2014-Oct-16 06:33N 35°54' W 005°19'0 0.0
2014-Oct-16 05:33N 35°54' W 005°19'0 0.0
2014-Oct-16 04:33N 35°54' W 005°19'0 0.0
2014-Oct-16 03:33N 35°54' W 005°19'0 0.0
2014-Oct-16 02:33N 35°54' W 005°19'0 0.0
2014-Oct-16 01:33N 35°54' W 005°19'0 0.0
2014-Oct-16 00:33N 35°54' W 005°19'0 0.0
2014-Oct-15 23:33N 35°54' W 005°19'0 0.0
2014-Oct-15 22:33N 35°54' W 005°19'0 0.0
2014-Oct-15 21:33N 35°54' W 005°19'0 0.0
2014-Oct-15 20:33N 35°54' W 005°19'0 0.0
2014-Oct-15 19:33N 35°54' W 005°19'0 0.0
2014-Oct-15 18:33N 35°54' W 005°19'  

Dump ship's entire track history